sensor_id;sensor_type;location;lat;lon;timestamp;P1;durP1;ratioP1;P2;durP2;ratioP2
10677;SDS011;5387;48.722;9.110;2024-01-30T00:01:54;7.73;;;4.43;;
10677;SDS011;5387;48.722;9.110;2024-01-30T00:04:21;6.63;;;4.50;;
10677;SDS011;5387;48.722;9.110;2024-01-30T00:06:47;7.03;;;4.60;;
10677;SDS011;5387;48.722;9.110;2024-01-30T00:09:14;7.07;;;4.03;;
10677;SDS011;5387;48.722;9.110;2024-01-30T00:11:42;5.83;;;4.43;;
10677;SDS011;5387;48.722;9.110;2024-01-30T00:14:09;5.50;;;4.17;;
10677;SDS011;5387;48.722;9.110;2024-01-30T00:16:36;6.90;;;3.80;;
10677;SDS011;5387;48.722;9.110;2024-01-30T00:19:03;5.87;;;4.10;;
10677;SDS011;5387;48.722;9.110;2024-01-30T00:21:29;4.33;;;3.90;;
10677;SDS011;5387;48.722;9.110;2024-01-30T00:23:56;8.27;;;4.57;;
10677;SDS011;5387;48.722;9.110;2024-01-30T00:26:23;5.97;;;3.97;;
10677;SDS011;5387;48.722;9.110;2024-01-30T00:28:51;10.73;;;4.83;;
10677;SDS011;5387;48.722;9.110;2024-01-30T00:31:18;8.10;;;4.27;;
10677;SDS011;5387;48.722;9.110;2024-01-30T00:33:44;7.53;;;4.00;;
10677;SDS011;5387;48.722;9.110;2024-01-30T00:36:11;5.60;;;4.43;;
10677;SDS011;5387;48.722;9.110;2024-01-30T00:38:38;8.60;;;4.50;;
10677;SDS011;5387;48.722;9.110;2024-01-30T00:41:06;6.37;;;4.43;;
10677;SDS011;5387;48.722;9.110;2024-01-30T00:43:34;9.27;;;4.90;;
10677;SDS011;5387;48.722;9.110;2024-01-30T00:46:02;7.37;;;4.80;;
10677;SDS011;5387;48.722;9.110;2024-01-30T00:48:29;6.73;;;4.50;;
10677;SDS011;5387;48.722;9.110;2024-01-30T00:50:56;8.00;;;4.50;;
10677;SDS011;5387;48.722;9.110;2024-01-30T00:53:22;7.70;;;3.90;;
10677;SDS011;5387;48.722;9.110;2024-01-30T00:55:49;6.57;;;5.10;;
10677;SDS011;5387;48.722;9.110;2024-01-30T00:58:16;7.47;;;4.17;;
10677;SDS011;5387;48.722;9.110;2024-01-30T01:00:44;7.37;;;4.30;;
10677;SDS011;5387;48.722;9.110;2024-01-30T01:03:12;5.90;;;4.13;;
10677;SDS011;5387;48.722;9.110;2024-01-30T01:05:40;6.87;;;4.83;;
10677;SDS011;5387;48.722;9.110;2024-01-30T01:08:06;7.53;;;4.13;;
10677;SDS011;5387;48.722;9.110;2024-01-30T01:10:34;5.73;;;4.57;;
10677;SDS011;5387;48.722;9.110;2024-01-30T01:13:00;6.73;;;4.03;;
10677;SDS011;5387;48.722;9.110;2024-01-30T01:15:27;6.73;;;4.57;;
10677;SDS011;5387;48.722;9.110;2024-01-30T01:17:54;6.33;;;4.60;;
10677;SDS011;5387;48.722;9.110;2024-01-30T01:20:22;10.87;;;4.73;;
10677;SDS011;5387;48.722;9.110;2024-01-30T01:22:49;5.13;;;3.97;;
10677;SDS011;5387;48.722;9.110;2024-01-30T01:25:15;6.07;;;4.10;;
10677;SDS011;5387;48.722;9.110;2024-01-30T01:27:42;6.17;;;4.17;;
10677;SDS011;5387;48.722;9.110;2024-01-30T01:30:16;6.90;;;4.27;;
10677;SDS011;5387;48.722;9.110;2024-01-30T01:32:46;6.73;;;4.43;;
10677;SDS011;5387;48.722;9.110;2024-01-30T01:35:19;6.37;;;4.67;;
10677;SDS011;5387;48.722;9.110;2024-01-30T01:37:49;7.03;;;3.60;;
10677;SDS011;5387;48.722;9.110;2024-01-30T01:40:20;5.33;;;4.30;;
10677;SDS011;5387;48.722;9.110;2024-01-30T01:42:47;7.97;;;4.73;;
10677;SDS011;5387;48.722;9.110;2024-01-30T01:45:15;7.00;;;4.67;;
10677;SDS011;5387;48.722;9.110;2024-01-30T01:47:42;6.33;;;4.50;;
10677;SDS011;5387;48.722;9.110;2024-01-30T01:50:11;6.63;;;3.90;;
10677;SDS011;5387;48.722;9.110;2024-01-30T01:52:38;6.23;;;4.07;;
10677;SDS011;5387;48.722;9.110;2024-01-30T01:55:08;9.30;;;4.27;;
10677;SDS011;5387;48.722;9.110;2024-01-30T01:57:35;7.13;;;4.50;;
10677;SDS011;5387;48.722;9.110;2024-01-30T02:00:02;6.80;;;3.83;;
10677;SDS011;5387;48.722;9.110;2024-01-30T02:02:30;5.63;;;4.60;;
10677;SDS011;5387;48.722;9.110;2024-01-30T02:05:00;7.10;;;3.93;;
10677;SDS011;5387;48.722;9.110;2024-01-30T02:07:28;6.03;;;4.20;;
10677;SDS011;5387;48.722;9.110;2024-01-30T02:09:54;6.90;;;4.17;;
10677;SDS011;5387;48.722;9.110;2024-01-30T02:12:23;6.27;;;4.30;;
10677;SDS011;5387;48.722;9.110;2024-01-30T02:14:50;5.20;;;3.93;;
10677;SDS011;5387;48.722;9.110;2024-01-30T02:17:18;7.43;;;4.27;;
10677;SDS011;5387;48.722;9.110;2024-01-30T02:19:45;7.47;;;4.13;;
10677;SDS011;5387;48.722;9.110;2024-01-30T02:22:13;6.57;;;4.03;;
10677;SDS011;5387;48.722;9.110;2024-01-30T02:24:40;6.23;;;4.43;;
10677;SDS011;5387;48.722;9.110;2024-01-30T02:27:07;6.53;;;4.30;;
10677;SDS011;5387;48.722;9.110;2024-01-30T02:29:34;5.60;;;4.20;;
10677;SDS011;5387;48.722;9.110;2024-01-30T02:32:01;6.33;;;4.40;;
10677;SDS011;5387;48.722;9.110;2024-01-30T02:34:28;9.17;;;4.23;;
10677;SDS011;5387;48.722;9.110;2024-01-30T02:36:55;6.27;;;4.43;;
10677;SDS011;5387;48.722;9.110;2024-01-30T02:39:23;7.10;;;5.00;;
10677;SDS011;5387;48.722;9.110;2024-01-30T02:41:50;9.20;;;5.53;;
10677;SDS011;5387;48.722;9.110;2024-01-30T02:44:17;7.00;;;4.20;;
10677;SDS011;5387;48.722;9.110;2024-01-30T02:46:44;7.13;;;4.80;;
10677;SDS011;5387;48.722;9.110;2024-01-30T02:49:11;5.37;;;4.57;;
10677;SDS011;5387;48.722;9.110;2024-01-30T02:51:38;6.10;;;4.67;;
10677;SDS011;5387;48.722;9.110;2024-01-30T02:54:05;8.13;;;5.10;;
10677;SDS011;5387;48.722;9.110;2024-01-30T02:56:33;7.53;;;5.03;;
10677;SDS011;5387;48.722;9.110;2024-01-30T02:58:59;6.30;;;4.03;;
10677;SDS011;5387;48.722;9.110;2024-01-30T03:01:26;7.87;;;4.97;;
10677;SDS011;5387;48.722;9.110;2024-01-30T03:03:53;6.77;;;4.87;;
10677;SDS011;5387;48.722;9.110;2024-01-30T03:06:20;8.17;;;4.83;;
10677;SDS011;5387;48.722;9.110;2024-01-30T03:08:48;7.90;;;3.97;;
10677;SDS011;5387;48.722;9.110;2024-01-30T03:11:14;8.37;;;4.23;;
10677;SDS011;5387;48.722;9.110;2024-01-30T03:13:43;6.03;;;4.67;;
10677;SDS011;5387;48.722;9.110;2024-01-30T03:16:09;4.77;;;3.87;;
10677;SDS011;5387;48.722;9.110;2024-01-30T03:18:36;7.43;;;4.80;;
10677;SDS011;5387;48.722;9.110;2024-01-30T03:21:03;7.30;;;4.17;;
10677;SDS011;5387;48.722;9.110;2024-01-30T03:23:30;5.83;;;4.47;;
10677;SDS011;5387;48.722;9.110;2024-01-30T03:25:57;6.37;;;4.40;;
10677;SDS011;5387;48.722;9.110;2024-01-30T03:28:24;6.00;;;3.70;;
10677;SDS011;5387;48.722;9.110;2024-01-30T03:30:52;7.23;;;4.13;;
10677;SDS011;5387;48.722;9.110;2024-01-30T03:33:19;8.23;;;4.50;;
10677;SDS011;5387;48.722;9.110;2024-01-30T03:35:46;9.33;;;5.13;;
10677;SDS011;5387;48.722;9.110;2024-01-30T03:38:13;7.67;;;4.70;;
10677;SDS011;5387;48.722;9.110;2024-01-30T03:40:39;9.40;;;5.27;;
10677;SDS011;5387;48.722;9.110;2024-01-30T03:43:06;6.27;;;4.23;;
10677;SDS011;5387;48.722;9.110;2024-01-30T03:45:33;5.97;;;4.43;;
10677;SDS011;5387;48.722;9.110;2024-01-30T03:48:01;7.67;;;4.77;;
10677;SDS011;5387;48.722;9.110;2024-01-30T03:50:28;6.07;;;4.83;;
10677;SDS011;5387;48.722;9.110;2024-01-30T03:52:54;7.30;;;4.33;;
10677;SDS011;5387;48.722;9.110;2024-01-30T03:55:21;6.20;;;4.33;;
10677;SDS011;5387;48.722;9.110;2024-01-30T03:57:48;5.13;;;4.03;;
10677;SDS011;5387;48.722;9.110;2024-01-30T04:00:15;6.37;;;4.60;;
10677;SDS011;5387;48.722;9.110;2024-01-30T04:02:42;7.03;;;4.97;;
10677;SDS011;5387;48.722;9.110;2024-01-30T04:05:10;8.33;;;4.40;;
10677;SDS011;5387;48.722;9.110;2024-01-30T04:07:37;5.97;;;4.67;;
10677;SDS011;5387;48.722;9.110;2024-01-30T04:10:04;12.53;;;5.33;;
10677;SDS011;5387;48.722;9.110;2024-01-30T04:12:32;8.00;;;5.60;;
10677;SDS011;5387;48.722;9.110;2024-01-30T04:14:58;9.20;;;5.73;;
10677;SDS011;5387;48.722;9.110;2024-01-30T04:17:25;8.90;;;5.77;;
10677;SDS011;5387;48.722;9.110;2024-01-30T04:19:53;10.53;;;5.53;;
10677;SDS011;5387;48.722;9.110;2024-01-30T04:22:22;10.83;;;6.03;;
10677;SDS011;5387;48.722;9.110;2024-01-30T04:24:48;10.10;;;5.23;;
10677;SDS011;5387;48.722;9.110;2024-01-30T04:27:15;7.63;;;5.30;;
10677;SDS011;5387;48.722;9.110;2024-01-30T04:29:42;8.93;;;5.60;;
10677;SDS011;5387;48.722;9.110;2024-01-30T04:32:09;7.67;;;5.00;;
10677;SDS011;5387;48.722;9.110;2024-01-30T04:34:36;6.07;;;4.67;;
10677;SDS011;5387;48.722;9.110;2024-01-30T04:37:03;8.27;;;4.90;;
10677;SDS011;5387;48.722;9.110;2024-01-30T04:39:32;8.10;;;4.97;;
10677;SDS011;5387;48.722;9.110;2024-01-30T04:41:59;9.43;;;5.67;;
10677;SDS011;5387;48.722;9.110;2024-01-30T04:44:26;12.43;;;5.23;;
10677;SDS011;5387;48.722;9.110;2024-01-30T04:46:52;8.70;;;5.13;;
10677;SDS011;5387;48.722;9.110;2024-01-30T04:49:24;8.60;;;5.23;;
10677;SDS011;5387;48.722;9.110;2024-01-30T04:51:50;7.50;;;5.13;;
10677;SDS011;5387;48.722;9.110;2024-01-30T04:54:17;8.57;;;5.30;;
10677;SDS011;5387;48.722;9.110;2024-01-30T04:56:45;9.63;;;5.20;;
10677;SDS011;5387;48.722;9.110;2024-01-30T04:59:12;7.53;;;5.00;;
10677;SDS011;5387;48.722;9.110;2024-01-30T05:01:39;10.40;;;5.00;;
10677;SDS011;5387;48.722;9.110;2024-01-30T05:04:07;6.87;;;4.80;;
10677;SDS011;5387;48.722;9.110;2024-01-30T05:06:34;6.47;;;5.03;;
10677;SDS011;5387;48.722;9.110;2024-01-30T05:09:00;6.33;;;4.83;;
10677;SDS011;5387;48.722;9.110;2024-01-30T05:11:29;10.17;;;5.90;;
10677;SDS011;5387;48.722;9.110;2024-01-30T05:13:57;17.13;;;10.67;;
10677;SDS011;5387;48.722;9.110;2024-01-30T05:16:24;11.63;;;8.03;;
10677;SDS011;5387;48.722;9.110;2024-01-30T05:18:51;13.70;;;6.83;;
10677;SDS011;5387;48.722;9.110;2024-01-30T05:21:17;12.70;;;5.87;;
10677;SDS011;5387;48.722;9.110;2024-01-30T05:23:44;10.60;;;6.10;;
10677;SDS011;5387;48.722;9.110;2024-01-30T05:26:11;10.83;;;6.50;;
10677;SDS011;5387;48.722;9.110;2024-01-30T05:28:38;14.37;;;7.50;;
10677;SDS011;5387;48.722;9.110;2024-01-30T05:31:06;16.53;;;8.30;;
10677;SDS011;5387;48.722;9.110;2024-01-30T05:33:32;13.87;;;8.27;;
10677;SDS011;5387;48.722;9.110;2024-01-30T05:35:59;12.60;;;7.70;;
10677;SDS011;5387;48.722;9.110;2024-01-30T05:38:26;12.20;;;8.23;;
10677;SDS011;5387;48.722;9.110;2024-01-30T05:40:53;12.13;;;7.27;;
10677;SDS011;5387;48.722;9.110;2024-01-30T05:43:21;11.37;;;7.03;;
10677;SDS011;5387;48.722;9.110;2024-01-30T05:45:47;14.90;;;6.90;;
10677;SDS011;5387;48.722;9.110;2024-01-30T05:48:15;11.47;;;6.83;;
10677;SDS011;5387;48.722;9.110;2024-01-30T05:50:42;12.83;;;6.70;;
10677;SDS011;5387;48.722;9.110;2024-01-30T05:53:10;12.73;;;6.23;;
10677;SDS011;5387;48.722;9.110;2024-01-30T05:55:36;10.70;;;6.27;;
10677;SDS011;5387;48.722;9.110;2024-01-30T05:58:03;7.80;;;5.50;;
10677;SDS011;5387;48.722;9.110;2024-01-30T06:00:30;11.13;;;6.03;;
10677;SDS011;5387;48.722;9.110;2024-01-30T06:02:57;10.37;;;5.43;;
10677;SDS011;5387;48.722;9.110;2024-01-30T06:05:25;7.90;;;5.50;;
10677;SDS011;5387;48.722;9.110;2024-01-30T06:07:52;9.07;;;5.33;;
10677;SDS011;5387;48.722;9.110;2024-01-30T06:10:19;10.37;;;5.53;;
10677;SDS011;5387;48.722;9.110;2024-01-30T06:12:46;8.53;;;5.50;;
10677;SDS011;5387;48.722;9.110;2024-01-30T06:15:13;8.13;;;5.20;;
10677;SDS011;5387;48.722;9.110;2024-01-30T06:17:40;6.87;;;4.67;;
10677;SDS011;5387;48.722;9.110;2024-01-30T06:20:07;10.63;;;4.93;;
10677;SDS011;5387;48.722;9.110;2024-01-30T06:22:35;8.50;;;5.53;;
10677;SDS011;5387;48.722;9.110;2024-01-30T06:25:02;7.90;;;5.37;;
10677;SDS011;5387;48.722;9.110;2024-01-30T06:27:29;7.70;;;5.17;;
10677;SDS011;5387;48.722;9.110;2024-01-30T06:29:56;7.10;;;5.03;;
10677;SDS011;5387;48.722;9.110;2024-01-30T06:32:22;7.43;;;5.07;;
10677;SDS011;5387;48.722;9.110;2024-01-30T06:34:49;6.53;;;4.77;;
10677;SDS011;5387;48.722;9.110;2024-01-30T06:37:16;6.57;;;5.10;;
10677;SDS011;5387;48.722;9.110;2024-01-30T06:39:44;7.80;;;5.33;;
10677;SDS011;5387;48.722;9.110;2024-01-30T06:42:11;16.93;;;5.37;;
10677;SDS011;5387;48.722;9.110;2024-01-30T06:44:38;12.47;;;5.73;;
10677;SDS011;5387;48.722;9.110;2024-01-30T06:47:04;7.70;;;4.80;;
10677;SDS011;5387;48.722;9.110;2024-01-30T06:49:31;7.17;;;5.53;;
10677;SDS011;5387;48.722;9.110;2024-01-30T06:51:58;10.00;;;5.80;;
10677;SDS011;5387;48.722;9.110;2024-01-30T06:54:25;8.03;;;6.00;;
10677;SDS011;5387;48.722;9.110;2024-01-30T06:56:53;8.23;;;4.97;;
10677;SDS011;5387;48.722;9.110;2024-01-30T06:59:20;11.33;;;5.30;;
10677;SDS011;5387;48.722;9.110;2024-01-30T07:01:46;8.13;;;6.17;;
10677;SDS011;5387;48.722;9.110;2024-01-30T07:04:13;10.50;;;6.10;;
10677;SDS011;5387;48.722;9.110;2024-01-30T07:06:41;10.30;;;6.10;;
10677;SDS011;5387;48.722;9.110;2024-01-30T07:09:07;8.23;;;5.60;;
10677;SDS011;5387;48.722;9.110;2024-01-30T07:11:34;10.80;;;6.57;;
10677;SDS011;5387;48.722;9.110;2024-01-30T07:14:02;11.97;;;5.83;;
10677;SDS011;5387;48.722;9.110;2024-01-30T07:16:29;8.63;;;5.53;;
10677;SDS011;5387;48.722;9.110;2024-01-30T07:18:56;9.27;;;6.37;;
10677;SDS011;5387;48.722;9.110;2024-01-30T07:21:23;8.23;;;6.00;;
10677;SDS011;5387;48.722;9.110;2024-01-30T07:23:53;7.33;;;5.67;;
10677;SDS011;5387;48.722;9.110;2024-01-30T07:26:20;10.33;;;5.57;;
10677;SDS011;5387;48.722;9.110;2024-01-30T07:28:47;7.60;;;5.60;;
10677;SDS011;5387;48.722;9.110;2024-01-30T07:31:16;8.83;;;5.33;;
10677;SDS011;5387;48.722;9.110;2024-01-30T07:33:45;8.00;;;5.93;;
10677;SDS011;5387;48.722;9.110;2024-01-30T07:36:12;7.43;;;5.57;;
10677;SDS011;5387;48.722;9.110;2024-01-30T07:38:39;12.03;;;6.87;;
10677;SDS011;5387;48.722;9.110;2024-01-30T07:41:06;14.50;;;6.13;;
10677;SDS011;5387;48.722;9.110;2024-01-30T07:43:33;13.57;;;6.90;;
10677;SDS011;5387;48.722;9.110;2024-01-30T07:46:00;15.87;;;6.43;;
10677;SDS011;5387;48.722;9.110;2024-01-30T07:48:29;12.30;;;6.93;;
10677;SDS011;5387;48.722;9.110;2024-01-30T07:50:56;8.67;;;6.10;;
10677;SDS011;5387;48.722;9.110;2024-01-30T07:53:23;12.00;;;6.20;;
10677;SDS011;5387;48.722;9.110;2024-01-30T07:55:49;11.97;;;5.80;;
10677;SDS011;5387;48.722;9.110;2024-01-30T07:58:16;11.93;;;6.90;;
10677;SDS011;5387;48.722;9.110;2024-01-30T08:00:44;14.93;;;5.97;;
10677;SDS011;5387;48.722;9.110;2024-01-30T08:03:11;14.03;;;6.03;;
10677;SDS011;5387;48.722;9.110;2024-01-30T08:05:39;9.37;;;6.40;;
10677;SDS011;5387;48.722;9.110;2024-01-30T08:08:06;10.50;;;6.63;;
10677;SDS011;5387;48.722;9.110;2024-01-30T08:10:32;11.20;;;6.60;;
10677;SDS011;5387;48.722;9.110;2024-01-30T08:12:59;14.23;;;7.83;;
10677;SDS011;5387;48.722;9.110;2024-01-30T08:15:26;8.87;;;5.77;;
10677;SDS011;5387;48.722;9.110;2024-01-30T08:17:53;10.80;;;6.37;;
10677;SDS011;5387;48.722;9.110;2024-01-30T08:20:22;10.43;;;6.20;;
10677;SDS011;5387;48.722;9.110;2024-01-30T08:22:51;12.23;;;6.70;;
10677;SDS011;5387;48.722;9.110;2024-01-30T08:25:17;12.63;;;6.20;;
10677;SDS011;5387;48.722;9.110;2024-01-30T08:27:44;7.17;;;5.77;;
10677;SDS011;5387;48.722;9.110;2024-01-30T08:30:11;9.43;;;6.67;;
10677;SDS011;5387;48.722;9.110;2024-01-30T08:32:38;12.07;;;7.13;;
10677;SDS011;5387;48.722;9.110;2024-01-30T08:35:05;13.27;;;6.47;;
10677;SDS011;5387;48.722;9.110;2024-01-30T08:37:33;17.07;;;6.00;;
10677;SDS011;5387;48.722;9.110;2024-01-30T08:40:01;10.73;;;6.47;;
10677;SDS011;5387;48.722;9.110;2024-01-30T08:42:29;11.27;;;6.40;;
10677;SDS011;5387;48.722;9.110;2024-01-30T08:44:56;15.27;;;6.23;;
10677;SDS011;5387;48.722;9.110;2024-01-30T08:47:23;10.37;;;6.33;;
10677;SDS011;5387;48.722;9.110;2024-01-30T08:49:50;8.17;;;6.23;;
10677;SDS011;5387;48.722;9.110;2024-01-30T08:52:17;11.17;;;6.63;;
10677;SDS011;5387;48.722;9.110;2024-01-30T08:54:44;13.20;;;6.70;;
10677;SDS011;5387;48.722;9.110;2024-01-30T08:57:12;11.50;;;6.50;;
10677;SDS011;5387;48.722;9.110;2024-01-30T08:59:38;11.00;;;6.00;;
10677;SDS011;5387;48.722;9.110;2024-01-30T09:02:05;11.50;;;7.60;;
10677;SDS011;5387;48.722;9.110;2024-01-30T09:04:33;12.53;;;7.17;;
10677;SDS011;5387;48.722;9.110;2024-01-30T09:07:00;17.87;;;7.17;;
10677;SDS011;5387;48.722;9.110;2024-01-30T09:09:27;10.00;;;6.63;;
10677;SDS011;5387;48.722;9.110;2024-01-30T09:11:54;9.23;;;6.53;;
10677;SDS011;5387;48.722;9.110;2024-01-30T09:14:22;9.90;;;5.87;;
10677;SDS011;5387;48.722;9.110;2024-01-30T09:16:48;12.47;;;6.30;;
10677;SDS011;5387;48.722;9.110;2024-01-30T09:19:15;10.43;;;5.03;;
10677;SDS011;5387;48.722;9.110;2024-01-30T09:21:42;12.53;;;5.50;;
10677;SDS011;5387;48.722;9.110;2024-01-30T09:24:09;5.83;;;3.37;;
10677;SDS011;5387;48.722;9.110;2024-01-30T09:26:35;9.70;;;4.17;;
10677;SDS011;5387;48.722;9.110;2024-01-30T09:29:02;6.80;;;2.87;;
10677;SDS011;5387;48.722;9.110;2024-01-30T09:31:30;2.37;;;2.03;;
10677;SDS011;5387;48.722;9.110;2024-01-30T09:33:57;4.20;;;3.63;;
10677;SDS011;5387;48.722;9.110;2024-01-30T09:36:24;4.57;;;2.60;;
10677;SDS011;5387;48.722;9.110;2024-01-30T09:38:51;8.70;;;3.73;;
10677;SDS011;5387;48.722;9.110;2024-01-30T09:41:17;3.83;;;2.70;;
10677;SDS011;5387;48.722;9.110;2024-01-30T09:43:47;5.03;;;3.37;;
10677;SDS011;5387;48.722;9.110;2024-01-30T09:46:14;3.73;;;2.30;;
10677;SDS011;5387;48.722;9.110;2024-01-30T09:48:43;2.17;;;1.90;;
10677;SDS011;5387;48.722;9.110;2024-01-30T09:51:13;3.13;;;2.40;;
10677;SDS011;5387;48.722;9.110;2024-01-30T09:53:41;2.47;;;2.27;;
10677;SDS011;5387;48.722;9.110;2024-01-30T09:56:09;5.27;;;2.50;;
10677;SDS011;5387;48.722;9.110;2024-01-30T09:58:36;2.30;;;2.10;;
10677;SDS011;5387;48.722;9.110;2024-01-30T10:01:04;2.37;;;2.17;;
10677;SDS011;5387;48.722;9.110;2024-01-30T10:03:31;2.37;;;2.10;;
10677;SDS011;5387;48.722;9.110;2024-01-30T10:05:59;1.97;;;1.73;;
10677;SDS011;5387;48.722;9.110;2024-01-30T10:08:27;2.63;;;1.97;;
10677;SDS011;5387;48.722;9.110;2024-01-30T10:10:54;11.83;;;2.40;;
10677;SDS011;5387;48.722;9.110;2024-01-30T10:13:21;4.63;;;2.20;;
10677;SDS011;5387;48.722;9.110;2024-01-30T10:15:48;2.80;;;1.97;;
10677;SDS011;5387;48.722;9.110;2024-01-30T10:18:16;2.13;;;1.90;;
10677;SDS011;5387;48.722;9.110;2024-01-30T10:20:43;2.97;;;2.00;;
10677;SDS011;5387;48.722;9.110;2024-01-30T10:23:11;4.73;;;2.20;;
10677;SDS011;5387;48.722;9.110;2024-01-30T10:25:38;2.83;;;2.03;;
10677;SDS011;5387;48.722;9.110;2024-01-30T10:28:05;3.83;;;2.00;;
10677;SDS011;5387;48.722;9.110;2024-01-30T10:30:32;2.17;;;1.90;;
10677;SDS011;5387;48.722;9.110;2024-01-30T10:32:58;2.30;;;2.10;;
10677;SDS011;5387;48.722;9.110;2024-01-30T10:35:25;5.70;;;2.10;;
10677;SDS011;5387;48.722;9.110;2024-01-30T10:37:52;3.20;;;2.10;;
10677;SDS011;5387;48.722;9.110;2024-01-30T10:40:24;4.13;;;2.13;;
10677;SDS011;5387;48.722;9.110;2024-01-30T10:42:54;2.30;;;2.10;;
10677;SDS011;5387;48.722;9.110;2024-01-30T10:45:22;2.27;;;2.07;;
10677;SDS011;5387;48.722;9.110;2024-01-30T10:47:53;2.97;;;2.07;;
10677;SDS011;5387;48.722;9.110;2024-01-30T10:50:22;4.40;;;2.60;;
10677;SDS011;5387;48.722;9.110;2024-01-30T10:52:51;4.03;;;2.10;;
10677;SDS011;5387;48.722;9.110;2024-01-30T10:55:19;1.93;;;1.83;;
10677;SDS011;5387;48.722;9.110;2024-01-30T10:57:49;2.47;;;2.27;;
10677;SDS011;5387;48.722;9.110;2024-01-30T11:00:16;2.53;;;1.87;;
10677;SDS011;5387;48.722;9.110;2024-01-30T11:02:48;6.50;;;2.00;;
10677;SDS011;5387;48.722;9.110;2024-01-30T11:05:22;3.50;;;2.00;;
10677;SDS011;5387;48.722;9.110;2024-01-30T11:07:50;2.17;;;1.90;;
10677;SDS011;5387;48.722;9.110;2024-01-30T11:10:16;2.10;;;1.90;;
10677;SDS011;5387;48.722;9.110;2024-01-30T11:12:45;3.00;;;2.40;;
10677;SDS011;5387;48.722;9.110;2024-01-30T11:15:14;3.73;;;1.97;;
10677;SDS011;5387;48.722;9.110;2024-01-30T11:17:42;2.70;;;2.03;;
10677;SDS011;5387;48.722;9.110;2024-01-30T11:20:11;5.03;;;2.20;;
10677;SDS011;5387;48.722;9.110;2024-01-30T11:22:41;2.53;;;2.33;;
10677;SDS011;5387;48.722;9.110;2024-01-30T11:25:11;4.07;;;2.43;;
10677;SDS011;5387;48.722;9.110;2024-01-30T11:27:38;3.27;;;2.23;;
10677;SDS011;5387;48.722;9.110;2024-01-30T11:30:06;2.50;;;2.17;;
10677;SDS011;5387;48.722;9.110;2024-01-30T11:32:35;4.77;;;2.17;;
10677;SDS011;5387;48.722;9.110;2024-01-30T11:35:03;2.10;;;1.90;;
10677;SDS011;5387;48.722;9.110;2024-01-30T11:37:31;1.90;;;1.80;;
10677;SDS011;5387;48.722;9.110;2024-01-30T11:40:02;3.43;;;2.13;;
10677;SDS011;5387;48.722;9.110;2024-01-30T11:42:31;2.20;;;2.07;;
10677;SDS011;5387;48.722;9.110;2024-01-30T11:44:59;7.40;;;2.50;;
10677;SDS011;5387;48.722;9.110;2024-01-30T11:47:27;3.50;;;2.00;;
10677;SDS011;5387;48.722;9.110;2024-01-30T11:49:55;2.33;;;2.00;;
10677;SDS011;5387;48.722;9.110;2024-01-30T11:52:22;2.70;;;2.13;;
10677;SDS011;5387;48.722;9.110;2024-01-30T11:54:49;3.23;;;2.33;;
10677;SDS011;5387;48.722;9.110;2024-01-30T11:57:16;4.00;;;2.00;;
10677;SDS011;5387;48.722;9.110;2024-01-30T11:59:43;3.23;;;2.10;;
10677;SDS011;5387;48.722;9.110;2024-01-30T12:02:14;2.63;;;2.23;;
10677;SDS011;5387;48.722;9.110;2024-01-30T12:04:42;3.33;;;2.03;;
10677;SDS011;5387;48.722;9.110;2024-01-30T12:07:10;2.47;;;2.23;;
10677;SDS011;5387;48.722;9.110;2024-01-30T12:09:38;3.03;;;2.07;;
10677;SDS011;5387;48.722;9.110;2024-01-30T12:12:06;1.80;;;1.70;;
10677;SDS011;5387;48.722;9.110;2024-01-30T12:14:37;2.67;;;1.70;;
10677;SDS011;5387;48.722;9.110;2024-01-30T12:17:04;4.00;;;2.10;;
10677;SDS011;5387;48.722;9.110;2024-01-30T12:19:32;4.37;;;2.07;;
10677;SDS011;5387;48.722;9.110;2024-01-30T12:21:59;2.73;;;2.20;;
10677;SDS011;5387;48.722;9.110;2024-01-30T12:24:27;2.60;;;2.30;;
10677;SDS011;5387;48.722;9.110;2024-01-30T12:26:56;2.13;;;1.93;;
10677;SDS011;5387;48.722;9.110;2024-01-30T12:29:23;2.50;;;2.13;;
10677;SDS011;5387;48.722;9.110;2024-01-30T12:31:52;4.50;;;2.10;;
10677;SDS011;5387;48.722;9.110;2024-01-30T12:34:19;3.37;;;2.07;;
10677;SDS011;5387;48.722;9.110;2024-01-30T12:36:46;2.95;;;2.47;;
10677;SDS011;5387;48.722;9.110;2024-01-30T12:39:14;3.67;;;2.10;;
10677;SDS011;5387;48.722;9.110;2024-01-30T12:41:42;7.07;;;2.07;;
10677;SDS011;5387;48.722;9.110;2024-01-30T12:44:09;3.20;;;2.30;;
10677;SDS011;5387;48.722;9.110;2024-01-30T12:46:36;2.70;;;2.47;;
10677;SDS011;5387;48.722;9.110;2024-01-30T12:49:02;3.05;;;2.10;;
10677;SDS011;5387;48.722;9.110;2024-01-30T12:51:34;2.63;;;2.00;;
10677;SDS011;5387;48.722;9.110;2024-01-30T12:54:04;2.30;;;2.03;;
10677;SDS011;5387;48.722;9.110;2024-01-30T12:56:31;2.08;;;1.98;;
10677;SDS011;5387;48.722;9.110;2024-01-30T12:58:59;6.67;;;1.80;;
10677;SDS011;5387;48.722;9.110;2024-01-30T13:01:26;3.80;;;1.80;;
10677;SDS011;5387;48.722;9.110;2024-01-30T13:03:53;2.67;;;2.47;;
10677;SDS011;5387;48.722;9.110;2024-01-30T13:06:22;10.25;;;2.72;;
10677;SDS011;5387;48.722;9.110;2024-01-30T13:08:49;3.58;;;2.00;;
10677;SDS011;5387;48.722;9.110;2024-01-30T13:11:15;4.00;;;2.10;;
10677;SDS011;5387;48.722;9.110;2024-01-30T13:13:42;2.38;;;2.05;;
10677;SDS011;5387;48.722;9.110;2024-01-30T13:16:10;3.08;;;2.20;;
10677;SDS011;5387;48.722;9.110;2024-01-30T13:18:37;3.25;;;2.28;;
10677;SDS011;5387;48.722;9.110;2024-01-30T13:21:04;4.55;;;2.67;;
10677;SDS011;5387;48.722;9.110;2024-01-30T13:23:31;6.32;;;2.10;;
10677;SDS011;5387;48.722;9.110;2024-01-30T13:25:57;9.05;;;2.67;;
10677;SDS011;5387;48.722;9.110;2024-01-30T13:28:24;4.28;;;2.58;;
10677;SDS011;5387;48.722;9.110;2024-01-30T13:30:51;4.38;;;2.40;;
10677;SDS011;5387;48.722;9.110;2024-01-30T13:33:19;1.80;;;1.63;;
10677;SDS011;5387;48.722;9.110;2024-01-30T13:35:47;2.47;;;2.25;;
10677;SDS011;5387;48.722;9.110;2024-01-30T13:38:13;6.68;;;2.20;;
10677;SDS011;5387;48.722;9.110;2024-01-30T13:40:40;3.33;;;2.42;;
10677;SDS011;5387;48.722;9.110;2024-01-30T13:43:07;4.90;;;2.20;;
10677;SDS011;5387;48.722;9.110;2024-01-30T13:45:34;4.10;;;2.20;;
10677;SDS011;5387;48.722;9.110;2024-01-30T13:48:01;7.60;;;2.33;;
10677;SDS011;5387;48.722;9.110;2024-01-30T13:50:30;3.28;;;2.30;;
10677;SDS011;5387;48.722;9.110;2024-01-30T13:52:58;2.13;;;1.92;;
10677;SDS011;5387;48.722;9.110;2024-01-30T13:55:25;2.58;;;2.20;;
10677;SDS011;5387;48.722;9.110;2024-01-30T13:57:51;3.83;;;1.95;;
10677;SDS011;5387;48.722;9.110;2024-01-30T14:00:18;4.30;;;2.08;;
10677;SDS011;5387;48.722;9.110;2024-01-30T14:02:47;2.25;;;1.88;;
10677;SDS011;5387;48.722;9.110;2024-01-30T14:05:14;2.78;;;2.10;;
10677;SDS011;5387;48.722;9.110;2024-01-30T14:07:42;2.58;;;2.20;;
10677;SDS011;5387;48.722;9.110;2024-01-30T14:10:09;3.60;;;2.08;;
10677;SDS011;5387;48.722;9.110;2024-01-30T14:12:36;4.65;;;2.08;;
10677;SDS011;5387;48.722;9.110;2024-01-30T14:15:03;3.80;;;2.33;;
10677;SDS011;5387;48.722;9.110;2024-01-30T14:17:31;3.50;;;2.67;;
10677;SDS011;5387;48.722;9.110;2024-01-30T14:19:58;3.00;;;2.15;;
10677;SDS011;5387;48.722;9.110;2024-01-30T14:22:24;4.55;;;2.10;;
10677;SDS011;5387;48.722;9.110;2024-01-30T14:24:52;4.43;;;2.25;;
10677;SDS011;5387;48.722;9.110;2024-01-30T14:27:21;2.88;;;2.55;;
10677;SDS011;5387;48.722;9.110;2024-01-30T14:29:48;2.90;;;1.98;;
10677;SDS011;5387;48.722;9.110;2024-01-30T14:32:15;4.13;;;2.30;;
10677;SDS011;5387;48.722;9.110;2024-01-30T14:34:41;2.92;;;2.13;;
10677;SDS011;5387;48.722;9.110;2024-01-30T14:37:08;2.92;;;2.00;;
10677;SDS011;5387;48.722;9.110;2024-01-30T14:39:35;5.80;;;2.20;;
10677;SDS011;5387;48.722;9.110;2024-01-30T14:42:03;2.45;;;2.08;;
10677;SDS011;5387;48.722;9.110;2024-01-30T14:44:30;3.53;;;2.40;;
10677;SDS011;5387;48.722;9.110;2024-01-30T14:46:58;3.20;;;2.40;;
10677;SDS011;5387;48.722;9.110;2024-01-30T14:49:25;4.63;;;2.70;;
10677;SDS011;5387;48.722;9.110;2024-01-30T14:51:52;2.43;;;2.17;;
10677;SDS011;5387;48.722;9.110;2024-01-30T14:54:19;2.40;;;2.20;;
10677;SDS011;5387;48.722;9.110;2024-01-30T14:56:46;5.75;;;2.67;;
10677;SDS011;5387;48.722;9.110;2024-01-30T14:59:14;2.72;;;2.53;;